sensor_id;sensor_type;location;lat;lon;timestamp;P1;durP1;ratioP1;P2;durP2;ratioP2
45388;SDS011;31127;52.078;4.370;2022-09-27T00:01:24;12.07;;;1.80;;
45388;SDS011;31127;52.078;4.370;2022-09-27T00:06:22;13.88;;;2.67;;
45388;SDS011;31127;52.078;4.370;2022-09-27T00:11:25;10.68;;;2.50;;
45388;SDS011;31127;52.078;4.370;2022-09-27T00:16:21;16.48;;;2.58;;
45388;SDS011;31127;52.078;4.370;2022-09-27T00:21:25;17.83;;;2.45;;
45388;SDS011;31127;52.078;4.370;2022-09-27T00:26:25;18.27;;;2.63;;
45388;SDS011;31127;52.078;4.370;2022-09-27T00:31:24;15.32;;;2.22;;
45388;SDS011;31127;52.078;4.370;2022-09-27T00:36:20;17.70;;;2.92;;
45388;SDS011;31127;52.078;4.370;2022-09-27T00:41:18;9.10;;;1.48;;
45388;SDS011;31127;52.078;4.370;2022-09-27T00:46:14;15.82;;;2.80;;
45388;SDS011;31127;52.078;4.370;2022-09-27T00:51:13;14.68;;;2.50;;
45388;SDS011;31127;52.078;4.370;2022-09-27T00:56:09;12.60;;;1.98;;
45388;SDS011;31127;52.078;4.370;2022-09-27T01:01:06;12.73;;;1.98;;
45388;SDS011;31127;52.078;4.370;2022-09-27T01:06:05;12.20;;;2.13;;
45388;SDS011;31127;52.078;4.370;2022-09-27T01:11:09;10.10;;;1.85;;
45388;SDS011;31127;52.078;4.370;2022-09-27T01:16:14;11.57;;;1.50;;
45388;SDS011;31127;52.078;4.370;2022-09-27T01:31:34;7.88;;;1.40;;
45388;SDS011;31127;52.078;4.370;2022-09-27T01:41:52;13.95;;;1.35;;
45388;SDS011;31127;52.078;4.370;2022-09-27T01:47:13;10.70;;;2.03;;
45388;SDS011;31127;52.078;4.370;2022-09-27T01:57:30;14.45;;;2.10;;
45388;SDS011;31127;52.078;4.370;2022-09-27T02:02:26;12.82;;;1.60;;
45388;SDS011;31127;52.078;4.370;2022-09-27T02:07:56;11.02;;;1.63;;
45388;SDS011;31127;52.078;4.370;2022-09-27T02:12:55;18.02;;;2.95;;
45388;SDS011;31127;52.078;4.370;2022-09-27T02:17:56;16.77;;;1.65;;
45388;SDS011;31127;52.078;4.370;2022-09-27T02:27:57;6.68;;;1.00;;
45388;SDS011;31127;52.078;4.370;2022-09-27T02:33:13;10.98;;;1.83;;
45388;SDS011;31127;52.078;4.370;2022-09-27T02:38:28;12.65;;;2.03;;
45388;SDS011;31127;52.078;4.370;2022-09-27T02:43:26;10.20;;;1.88;;
45388;SDS011;31127;52.078;4.370;2022-09-27T02:54:07;7.50;;;1.13;;
45388;SDS011;31127;52.078;4.370;2022-09-27T02:59:06;3.90;;;0.75;;
45388;SDS011;31127;52.078;4.370;2022-09-27T03:04:38;7.68;;;1.00;;
45388;SDS011;31127;52.078;4.370;2022-09-27T03:09:41;8.65;;;1.05;;
45388;SDS011;31127;52.078;4.370;2022-09-27T03:14:38;5.45;;;0.90;;
45388;SDS011;31127;52.078;4.370;2022-09-27T03:19:54;10.73;;;3.38;;
45388;SDS011;31127;52.078;4.370;2022-09-27T03:25:13;7.93;;;1.40;;
45388;SDS011;31127;52.078;4.370;2022-09-27T03:30:09;14.00;;;2.05;;
45388;SDS011;31127;52.078;4.370;2022-09-27T03:35:05;6.97;;;1.15;;
45388;SDS011;31127;52.078;4.370;2022-09-27T03:40:21;9.95;;;1.63;;
45388;SDS011;31127;52.078;4.370;2022-09-27T03:45:17;11.38;;;1.58;;
45388;SDS011;31127;52.078;4.370;2022-09-27T03:50:13;15.27;;;2.28;;
45388;SDS011;31127;52.078;4.370;2022-09-27T03:55:09;13.43;;;2.35;;
45388;SDS011;31127;52.078;4.370;2022-09-27T04:00:25;6.65;;;1.75;;
45388;SDS011;31127;52.078;4.370;2022-09-27T04:05:20;14.80;;;2.47;;
45388;SDS011;31127;52.078;4.370;2022-09-27T04:10:16;9.15;;;1.83;;
45388;SDS011;31127;52.078;4.370;2022-09-27T04:15:11;7.30;;;1.50;;
45388;SDS011;31127;52.078;4.370;2022-09-27T04:20:27;10.18;;;1.77;;
45388;SDS011;31127;52.078;4.370;2022-09-27T04:25:23;8.63;;;1.40;;
45388;SDS011;31127;52.078;4.370;2022-09-27T04:30:19;12.52;;;1.25;;
45388;SDS011;31127;52.078;4.370;2022-09-27T04:35:24;8.48;;;1.70;;
45388;SDS011;31127;52.078;4.370;2022-09-27T04:40:38;12.27;;;2.15;;
45388;SDS011;31127;52.078;4.370;2022-09-27T04:45:34;14.23;;;1.52;;
45388;SDS011;31127;52.078;4.370;2022-09-27T04:50:29;11.13;;;1.63;;
45388;SDS011;31127;52.078;4.370;2022-09-27T04:55:35;4.55;;;0.70;;
45388;SDS011;31127;52.078;4.370;2022-09-27T05:00:31;12.98;;;1.00;;
45388;SDS011;31127;52.078;4.370;2022-09-27T05:05:36;7.63;;;1.48;;
45388;SDS011;31127;52.078;4.370;2022-09-27T05:10:31;8.87;;;1.33;;
45388;SDS011;31127;52.078;4.370;2022-09-27T05:15:27;22.30;;;2.05;;
45388;SDS011;31127;52.078;4.370;2022-09-27T05:20:48;20.67;;;2.20;;
45388;SDS011;31127;52.078;4.370;2022-09-27T05:25:53;7.00;;;1.48;;
45388;SDS011;31127;52.078;4.370;2022-09-27T05:30:50;13.30;;;1.63;;
45388;SDS011;31127;52.078;4.370;2022-09-27T05:35:52;6.85;;;1.45;;
45388;SDS011;31127;52.078;4.370;2022-09-27T05:40:50;11.25;;;1.50;;
45388;SDS011;31127;52.078;4.370;2022-09-27T05:45:46;11.73;;;1.85;;
45388;SDS011;31127;52.078;4.370;2022-09-27T05:50:44;7.82;;;1.13;;
45388;SDS011;31127;52.078;4.370;2022-09-27T05:55:39;8.13;;;1.42;;
45388;SDS011;31127;52.078;4.370;2022-09-27T06:00:35;5.00;;;1.10;;
45388;SDS011;31127;52.078;4.370;2022-09-27T06:05:37;4.57;;;0.95;;
45388;SDS011;31127;52.078;4.370;2022-09-27T06:11:06;3.58;;;0.70;;
45388;SDS011;31127;52.078;4.370;2022-09-27T06:16:07;9.63;;;1.30;;
45388;SDS011;31127;52.078;4.370;2022-09-27T06:21:05;9.23;;;1.48;;
45388;SDS011;31127;52.078;4.370;2022-09-27T06:26:02;10.85;;;1.27;;
45388;SDS011;31127;52.078;4.370;2022-09-27T06:31:17;7.05;;;1.10;;
45388;SDS011;31127;52.078;4.370;2022-09-27T06:36:17;11.75;;;1.60;;
45388;SDS011;31127;52.078;4.370;2022-09-27T06:41:28;13.82;;;2.28;;
45388;SDS011;31127;52.078;4.370;2022-09-27T06:46:42;14.50;;;1.95;;
45388;SDS011;31127;52.078;4.370;2022-09-27T06:51:40;14.57;;;2.08;;
45388;SDS011;31127;52.078;4.370;2022-09-27T06:56:36;16.50;;;2.60;;
45388;SDS011;31127;52.078;4.370;2022-09-27T07:01:31;8.90;;;2.20;;
45388;SDS011;31127;52.078;4.370;2022-09-27T07:07:02;8.02;;;1.50;;
45388;SDS011;31127;52.078;4.370;2022-09-27T07:12:01;12.15;;;1.67;;
45388;SDS011;31127;52.078;4.370;2022-09-27T07:16:56;19.13;;;1.50;;
45388;SDS011;31127;52.078;4.370;2022-09-27T07:21:53;6.57;;;1.17;;
45388;SDS011;31127;52.078;4.370;2022-09-27T07:26:49;5.38;;;0.85;;
45388;SDS011;31127;52.078;4.370;2022-09-27T07:31:47;10.18;;;1.40;;
45388;SDS011;31127;52.078;4.370;2022-09-27T07:36:42;9.07;;;1.67;;
45388;SDS011;31127;52.078;4.370;2022-09-27T07:41:38;8.25;;;1.40;;
45388;SDS011;31127;52.078;4.370;2022-09-27T07:46:34;8.77;;;1.73;;
45388;SDS011;31127;52.078;4.370;2022-09-27T07:51:45;8.88;;;1.25;;
45388;SDS011;31127;52.078;4.370;2022-09-27T07:57:16;11.95;;;1.52;;
45388;SDS011;31127;52.078;4.370;2022-09-27T08:02:18;12.38;;;1.95;;
45388;SDS011;31127;52.078;4.370;2022-09-27T08:07:15;8.60;;;1.48;;
45388;SDS011;31127;52.078;4.370;2022-09-27T08:12:14;8.50;;;1.48;;
45388;SDS011;31127;52.078;4.370;2022-09-27T08:17:09;8.05;;;1.67;;
45388;SDS011;31127;52.078;4.370;2022-09-27T08:22:25;8.98;;;1.98;;
45388;SDS011;31127;52.078;4.370;2022-09-27T08:27:31;17.80;;;1.63;;
45388;SDS011;31127;52.078;4.370;2022-09-27T08:32:29;17.15;;;2.42;;
45388;SDS011;31127;52.078;4.370;2022-09-27T08:37:25;14.55;;;2.92;;
45388;SDS011;31127;52.078;4.370;2022-09-27T08:47:28;9.17;;;1.20;;
45388;SDS011;31127;52.078;4.370;2022-09-27T08:52:30;6.65;;;0.80;;
45388;SDS011;31127;52.078;4.370;2022-09-27T08:57:28;9.57;;;1.17;;
45388;SDS011;31127;52.078;4.370;2022-09-27T09:02:23;10.18;;;1.92;;
45388;SDS011;31127;52.078;4.370;2022-09-27T09:07:34;14.73;;;1.77;;
45388;SDS011;31127;52.078;4.370;2022-09-27T09:12:39;9.40;;;1.30;;
45388;SDS011;31127;52.078;4.370;2022-09-27T09:38:27;9.48;;;2.47;;
45388;SDS011;31127;52.078;4.370;2022-09-27T09:43:31;9.75;;;1.60;;
45388;SDS011;31127;52.078;4.370;2022-09-27T09:48:48;10.18;;;1.40;;
45388;SDS011;31127;52.078;4.370;2022-09-27T09:53:53;4.25;;;0.82;;
45388;SDS011;31127;52.078;4.370;2022-09-27T09:58:56;9.27;;;2.20;;
45388;SDS011;31127;52.078;4.370;2022-09-27T10:03:58;15.27;;;1.77;;
45388;SDS011;31127;52.078;4.370;2022-09-27T10:08:53;10.27;;;2.97;;
45388;SDS011;31127;52.078;4.370;2022-09-27T10:14:17;9.90;;;2.13;;
45388;SDS011;31127;52.078;4.370;2022-09-27T10:19:17;9.57;;;1.55;;
45388;SDS011;31127;52.078;4.370;2022-09-27T10:24:14;9.25;;;1.70;;
45388;SDS011;31127;52.078;4.370;2022-09-27T10:29:33;8.55;;;1.77;;
45388;SDS011;31127;52.078;4.370;2022-09-27T10:34:30;13.20;;;2.22;;
45388;SDS011;31127;52.078;4.370;2022-09-27T10:39:30;7.20;;;1.52;;
45388;SDS011;31127;52.078;4.370;2022-09-27T10:44:29;11.63;;;2.13;;
45388;SDS011;31127;52.078;4.370;2022-09-27T10:49:45;4.25;;;1.40;;
45388;SDS011;31127;52.078;4.370;2022-09-27T10:54:54;7.07;;;1.27;;
45388;SDS011;31127;52.078;4.370;2022-09-27T10:59:54;15.15;;;7.32;;
45388;SDS011;31127;52.078;4.370;2022-09-27T11:15:03;6.57;;;1.77;;
45388;SDS011;31127;52.078;4.370;2022-09-27T11:20:06;7.65;;;1.65;;
45388;SDS011;31127;52.078;4.370;2022-09-27T11:30:02;7.43;;;1.90;;
45388;SDS011;31127;52.078;4.370;2022-09-27T11:35:41;8.05;;;1.58;;
45388;SDS011;31127;52.078;4.370;2022-09-27T12:01:32;7.07;;;1.65;;
45388;SDS011;31127;52.078;4.370;2022-09-27T12:06:38;5.72;;;1.40;;
45388;SDS011;31127;52.078;4.370;2022-09-27T12:16:38;5.10;;;1.35;;
45388;SDS011;31127;52.078;4.370;2022-09-27T12:21:36;3.42;;;0.90;;
45388;SDS011;31127;52.078;4.370;2022-09-27T12:26:36;4.40;;;1.60;;
45388;SDS011;31127;52.078;4.370;2022-09-27T12:31:40;7.43;;;1.17;;
45388;SDS011;31127;52.078;4.370;2022-09-27T12:36:38;6.18;;;1.45;;
45388;SDS011;31127;52.078;4.370;2022-09-27T12:41:37;6.18;;;1.35;;
45388;SDS011;31127;52.078;4.370;2022-09-27T12:46:56;4.30;;;1.13;;
45388;SDS011;31127;52.078;4.370;2022-09-27T12:51:57;5.07;;;1.20;;
45388;SDS011;31127;52.078;4.370;2022-09-27T12:57:16;6.90;;;1.13;;
45388;SDS011;31127;52.078;4.370;2022-09-27T13:12:31;6.40;;;1.40;;
45388;SDS011;31127;52.078;4.370;2022-09-27T13:22:35;4.03;;;1.45;;
45388;SDS011;31127;52.078;4.370;2022-09-27T13:27:38;11.15;;;2.30;;
45388;SDS011;31127;52.078;4.370;2022-09-27T13:32:36;4.82;;;1.95;;
45388;SDS011;31127;52.078;4.370;2022-09-27T13:42:33;10.38;;;1.83;;
45388;SDS011;31127;52.078;4.370;2022-09-27T13:47:33;7.18;;;1.35;;
45388;SDS011;31127;52.078;4.370;2022-09-27T13:52:37;10.13;;;1.85;;
45388;SDS011;31127;52.078;4.370;2022-09-27T13:57:53;5.18;;;1.63;;
45388;SDS011;31127;52.078;4.370;2022-09-27T14:07:49;10.60;;;1.55;;
45388;SDS011;31127;52.078;4.370;2022-09-27T14:12:46;8.93;;;1.70;;
45388;SDS011;31127;52.078;4.370;2022-09-27T14:17:41;9.57;;;1.48;;
45388;SDS011;31127;52.078;4.370;2022-09-27T14:22:41;7.78;;;1.60;;
45388;SDS011;31127;52.078;4.370;2022-09-27T14:27:38;5.65;;;1.58;;
45388;SDS011;31127;52.078;4.370;2022-09-27T14:32:54;4.90;;;1.08;;
45388;SDS011;31127;52.078;4.370;2022-09-27T14:38:06;8.57;;;1.48;;
45388;SDS011;31127;52.078;4.370;2022-09-27T14:43:25;9.13;;;1.35;;
45388;SDS011;31127;52.078;4.370;2022-09-27T14:48:22;9.52;;;1.55;;
45388;SDS011;31127;52.078;4.370;2022-09-27T14:53:24;5.95;;;1.40;;
45388;SDS011;31127;52.078;4.370;2022-09-27T14:58:20;6.13;;;1.40;;
45388;SDS011;31127;52.078;4.370;2022-09-27T15:03:22;7.70;;;1.40;;
45388;SDS011;31127;52.078;4.370;2022-09-27T15:08:18;6.90;;;1.40;;
45388;SDS011;31127;52.078;4.370;2022-09-27T15:13:15;10.38;;;1.38;;
45388;SDS011;31127;52.078;4.370;2022-09-27T15:18:32;6.53;;;1.52;;
45388;SDS011;31127;52.078;4.370;2022-09-27T15:23:29;6.53;;;1.45;;
45388;SDS011;31127;52.078;4.370;2022-09-27T15:28:24;9.63;;;1.60;;
45388;SDS011;31127;52.078;4.370;2022-09-27T15:33:21;5.53;;;1.20;;
45388;SDS011;31127;52.078;4.370;2022-09-27T15:43:27;8.35;;;1.50;;
45388;SDS011;31127;52.078;4.370;2022-09-27T15:48:24;11.63;;;2.60;;
45388;SDS011;31127;52.078;4.370;2022-09-27T15:58:27;9.45;;;2.03;;
45388;SDS011;31127;52.078;4.370;2022-09-27T16:03:23;6.47;;;1.75;;
45388;SDS011;31127;52.078;4.370;2022-09-27T16:08:19;10.32;;;1.70;;
45388;SDS011;31127;52.078;4.370;2022-09-27T16:13:14;7.05;;;1.40;;
45388;SDS011;31127;52.078;4.370;2022-09-27T16:18:10;4.87;;;1.30;;
45388;SDS011;31127;52.078;4.370;2022-09-27T16:23:05;7.55;;;1.58;;
45388;SDS011;31127;52.078;4.370;2022-09-27T16:28:02;5.78;;;1.63;;
45388;SDS011;31127;52.078;4.370;2022-09-27T16:32:57;12.93;;;2.10;;
45388;SDS011;31127;52.078;4.370;2022-09-27T16:37:53;7.55;;;1.67;;
45388;SDS011;31127;52.078;4.370;2022-09-27T16:43:08;10.63;;;1.83;;
45388;SDS011;31127;52.078;4.370;2022-09-27T16:48:04;5.07;;;1.10;;
45388;SDS011;31127;52.078;4.370;2022-09-27T16:52:59;4.93;;;1.27;;
45388;SDS011;31127;52.078;4.370;2022-09-27T16:57:58;6.63;;;1.98;;
45388;SDS011;31127;52.078;4.370;2022-09-27T17:02:53;5.95;;;1.50;;
45388;SDS011;31127;52.078;4.370;2022-09-27T17:07:49;19.63;;;1.90;;
45388;SDS011;31127;52.078;4.370;2022-09-27T17:12:45;7.90;;;2.00;;
45388;SDS011;31127;52.078;4.370;2022-09-27T17:17:41;8.20;;;1.85;;
45388;SDS011;31127;52.078;4.370;2022-09-27T17:22:39;9.43;;;1.73;;
45388;SDS011;31127;52.078;4.370;2022-09-27T17:27:34;9.17;;;1.40;;
45388;SDS011;31127;52.078;4.370;2022-09-27T17:32:29;10.70;;;1.63;;
45388;SDS011;31127;52.078;4.370;2022-09-27T17:37:25;9.82;;;1.75;;
45388;SDS011;31127;52.078;4.370;2022-09-27T17:42:20;6.73;;;1.80;;
45388;SDS011;31127;52.078;4.370;2022-09-27T17:47:16;8.02;;;1.63;;
45388;SDS011;31127;52.078;4.370;2022-09-27T17:52:30;12.57;;;2.08;;
45388;SDS011;31127;52.078;4.370;2022-09-27T17:57:28;5.38;;;2.03;;
45388;SDS011;31127;52.078;4.370;2022-09-27T18:02:24;5.55;;;2.28;;
45388;SDS011;31127;52.078;4.370;2022-09-27T18:07:20;6.90;;;2.65;;
45388;SDS011;31127;52.078;4.370;2022-09-27T18:12:15;8.00;;;1.77;;
45388;SDS011;31127;52.078;4.370;2022-09-27T18:17:10;9.10;;;1.45;;
45388;SDS011;31127;52.078;4.370;2022-09-27T18:22:24;15.23;;;1.75;;
45388;SDS011;31127;52.078;4.370;2022-09-27T18:27:21;9.68;;;2.13;;
45388;SDS011;31127;52.078;4.370;2022-09-27T18:32:31;8.43;;;2.25;;
45388;SDS011;31127;52.078;4.370;2022-09-27T18:37:28;3.63;;;1.83;;
45388;SDS011;31127;52.078;4.370;2022-09-27T18:42:24;8.50;;;3.20;;
45388;SDS011;31127;52.078;4.370;2022-09-27T18:47:19;11.88;;;3.50;;
45388;SDS011;31127;52.078;4.370;2022-09-27T18:52:14;12.27;;;2.47;;
45388;SDS011;31127;52.078;4.370;2022-09-27T18:57:10;15.05;;;2.85;;
45388;SDS011;31127;52.078;4.370;2022-09-27T19:02:05;8.00;;;2.70;;
45388;SDS011;31127;52.078;4.370;2022-09-27T19:07:01;9.60;;;3.45;;
45388;SDS011;31127;52.078;4.370;2022-09-27T19:11:57;6.35;;;2.67;;
45388;SDS011;31127;52.078;4.370;2022-09-27T19:16:52;7.63;;;3.17;;
45388;SDS011;31127;52.078;4.370;2022-09-27T19:21:48;8.52;;;2.65;;
45388;SDS011;31127;52.078;4.370;2022-09-27T19:26:43;10.05;;;3.28;;
45388;SDS011;31127;52.078;4.370;2022-09-27T19:31:39;9.35;;;3.17;;
45388;SDS011;31127;52.078;4.370;2022-09-27T19:36:35;12.25;;;3.47;;
45388;SDS011;31127;52.078;4.370;2022-09-27T19:41:30;10.55;;;3.33;;
45388;SDS011;31127;52.078;4.370;2022-09-27T19:46:26;8.77;;;3.55;;
45388;SDS011;31127;52.078;4.370;2022-09-27T19:51:22;16.00;;;6.85;;
45388;SDS011;31127;52.078;4.370;2022-09-27T19:56:18;16.33;;;8.05;;
45388;SDS011;31127;52.078;4.370;2022-09-27T20:06:10;19.40;;;5.88;;
45388;SDS011;31127;52.078;4.370;2022-09-27T20:11:07;12.73;;;4.18;;
45388;SDS011;31127;52.078;4.370;2022-09-27T20:16:04;12.77;;;4.20;;
45388;SDS011;31127;52.078;4.370;2022-09-27T20:21:00;10.60;;;4.57;;
45388;SDS011;31127;52.078;4.370;2022-09-27T20:26:02;14.77;;;3.58;;
45388;SDS011;31127;52.078;4.370;2022-09-27T20:30:59;10.38;;;1.88;;
45388;SDS011;31127;52.078;4.370;2022-09-27T20:35:54;4.70;;;1.10;;
45388;SDS011;31127;52.078;4.370;2022-09-27T20:40:53;14.13;;;1.52;;
45388;SDS011;31127;52.078;4.370;2022-09-27T20:45:49;5.78;;;0.75;;
45388;SDS011;31127;52.078;4.370;2022-09-27T20:50:44;6.03;;;1.17;;
45388;SDS011;31127;52.078;4.370;2022-09-27T20:55:39;3.17;;;0.90;;
45388;SDS011;31127;52.078;4.370;2022-09-27T21:00:35;7.93;;;1.20;;
45388;SDS011;31127;52.078;4.370;2022-09-27T21:05:30;10.13;;;1.20;;
45388;SDS011;31127;52.078;4.370;2022-09-27T21:10:25;6.23;;;0.90;;
45388;SDS011;31127;52.078;4.370;2022-09-27T21:15:21;4.67;;;0.70;;
45388;SDS011;31127;52.078;4.370;2022-09-27T21:20:16;5.63;;;1.10;;
45388;SDS011;31127;52.078;4.370;2022-09-27T21:25:11;1.43;;;0.60;;
45388;SDS011;31127;52.078;4.370;2022-09-27T21:30:07;6.85;;;1.30;;
45388;SDS011;31127;52.078;4.370;2022-09-27T21:35:02;11.85;;;1.33;;
45388;SDS011;31127;52.078;4.370;2022-09-27T21:39:58;7.85;;;1.35;;
45388;SDS011;31127;52.078;4.370;2022-09-27T21:49:56;5.75;;;1.27;;
45388;SDS011;31127;52.078;4.370;2022-09-27T21:54:52;9.13;;;1.42;;
45388;SDS011;31127;52.078;4.370;2022-09-27T21:59:48;8.02;;;1.30;;
45388;SDS011;31127;52.078;4.370;2022-09-27T22:04:43;8.27;;;1.20;;
45388;SDS011;31127;52.078;4.370;2022-09-27T22:09:38;8.00;;;1.30;;
45388;SDS011;31127;52.078;4.370;2022-09-27T22:14:34;6.80;;;1.20;;
45388;SDS011;31127;52.078;4.370;2022-09-27T22:19:29;4.63;;;0.90;;
45388;SDS011;31127;52.078;4.370;2022-09-27T22:24:24;7.28;;;1.00;;
45388;SDS011;31127;52.078;4.370;2022-09-27T22:29:24;4.82;;;0.80;;
45388;SDS011;31127;52.078;4.370;2022-09-27T22:34:19;3.38;;;0.90;;
45388;SDS011;31127;52.078;4.370;2022-09-27T22:39:22;3.95;;;1.10;;
45388;SDS011;31127;52.078;4.370;2022-09-27T22:44:25;5.13;;;1.10;;
45388;SDS011;31127;52.078;4.370;2022-09-27T22:49:21;4.32;;;1.08;;
45388;SDS011;31127;52.078;4.370;2022-09-27T22:54:20;5.75;;;0.77;;
45388;SDS011;31127;52.078;4.370;2022-09-27T22:59:15;10.03;;;1.23;;
45388;SDS011;31127;52.078;4.370;2022-09-27T23:04:11;3.85;;;0.73;;
45388;SDS011;31127;52.078;4.370;2022-09-27T23:09:08;7.90;;;1.65;;
45388;SDS011;31127;52.078;4.370;2022-09-27T23:14:03;7.93;;;1.30;;
45388;SDS011;31127;52.078;4.370;2022-09-27T23:18:59;4.15;;;1.00;;
45388;SDS011;31127;52.078;4.370;2022-09-27T23:23:55;8.95;;;1.38;;
45388;SDS011;31127;52.078;4.370;2022-09-27T23:28:51;8.73;;;1.83;;
45388;SDS011;31127;52.078;4.370;2022-09-27T23:33:47;8.43;;;1.52;;
45388;SDS011;31127;52.078;4.370;2022-09-27T23:53:49;7.43;;;2.00;;
